Time;durP1;ratioP1;P1;durP2;ratioP2;P2;SDS_P1;SDS_P2;PMS_P1;PMS_P2;Temp;Humidity;BMP_temperature;BMP_pressure;BME280_temperature;BME280_humidity;BME280_pressure;Samples;Min_cycle;Max_cycle;Signal;HPM_P1;HPM_P2
2022/04/23 00:02:13;;;;;;;26.10;13.95;;;;;;;11.31;66.41;99566.72;5049515;28;20421;-44
2022/04/23 00:04:39;;;;;;;23.75;14.57;;;;;;;11.35;66.73;99568.31;5049072;28;20053;-45
2022/04/23 00:07:05;;;;;;;22.92;14.40;;;;;;;11.32;66.86;99558.03;5055202;28;20158;-45
2022/04/23 00:09:35;;;;;;;23.92;13.93;;;;;;;11.27;66.87;99554.75;5052989;28;20033;-46
2022/04/23 00:12:01;;;;;;;26.05;14.25;;;;;;;11.25;66.76;99555.72;5062607;28;20045;-45
2022/04/23 00:14:28;;;;;;;26.77;13.75;;;;;;;11.17;66.56;99553.41;5084137;28;20427;-48
2022/04/23 00:17:00;;;;;;;24.20;13.13;;;;;;;11.27;67.13;99565.16;5051215;28;20528;-43
2022/04/23 00:19:26;;;;;;;31.38;14.73;;;;;;;11.29;66.96;99565.13;5066857;28;20037;-44
2022/04/23 00:21:51;;;;;;;23.38;14.23;;;;;;;11.19;67.09;99543.81;5067263;28;20036;-44
2022/04/23 00:24:18;;;;;;;24.52;13.88;;;;;;;11.25;67.12;99550.53;5059726;28;20067;-47
2022/04/23 00:26:45;;;;;;;23.17;13.95;;;;;;;11.32;66.84;99558.03;5049356;28;20044;-46
2022/04/23 00:29:11;;;;;;;24.63;14.75;;;;;;;11.34;67.00;99557.97;5065427;28;20513;-46
2022/04/23 00:31:37;;;;;;;22.67;13.30;;;;;;;11.34;66.86;99555.38;5049786;28;20052;-44
2022/04/23 00:34:03;;;;;;;27.83;14.90;;;;;;;11.36;66.97;99561.34;5081501;28;20098;-46
2022/04/23 00:36:29;;;;;;;31.63;15.05;;;;;;;11.37;67.03;99560.44;5056606;28;20106;-47
2022/04/23 00:38:54;;;;;;;29.48;14.00;;;;;;;11.40;66.73;99555.97;5067743;28;20048;-44
2022/04/23 00:44:05;;;;;;;24.75;14.95;;;;;;;11.42;66.57;99561.09;5054860;28;20036;-45
2022/04/23 00:46:31;;;;;;;27.88;16.20;;;;;;;11.39;66.75;99558.63;5069491;28;20059;-44
2022/04/23 00:49:00;;;;;;;31.02;17.08;;;;;;;11.38;66.37;99562.13;5039245;28;20037;-43
2022/04/23 00:51:28;;;;;;;29.90;17.08;;;;;;;11.35;66.48;99557.91;5040159;28;20041;-45
2022/04/23 00:53:54;;;;;;;29.30;16.55;;;;;;;11.27;66.87;99554.75;5049515;28;20071;-44
2022/04/23 00:56:20;;;;;;;32.90;17.30;;;;;;;11.37;66.77;99566.50;5046675;28;20118;-44
2022/04/23 00:58:46;;;;;;;25.05;15.15;;;;;;;11.38;67.13;99559.53;5049122;28;20059;-45
2022/04/23 01:01:12;;;;;;;29.38;15.93;;;;;;;11.32;66.90;99550.22;5059948;28;20068;-47
2022/04/23 01:03:39;;;;;;;25.27;16.17;;;;;;;11.33;67.12;99540.66;5048710;28;20053;-46
2022/04/23 01:06:06;;;;;;;30.48;16.65;;;;;;;11.37;66.80;99552.63;5052491;28;20040;-44
2022/04/23 01:08:33;;;;;;;28.48;17.42;;;;;;;11.38;66.90;99554.31;5048177;28;20051;-49
2022/04/23 01:10:59;;;;;;;26.55;16.60;;;;;;;11.37;67.17;99555.22;5048752;28;20111;-46
2022/04/23 01:13:25;;;;;;;26.15;16.20;;;;;;;11.35;66.96;99549.25;5061993;28;20064;-46
2022/04/23 01:16:02;;;;;;;26.17;15.63;;;;;;;11.32;67.58;99555.41;5036079;28;20067;-44
2022/04/23 01:18:29;;;;;;;30.80;17.02;;;;;;;11.24;66.83;99536.66;5044620;28;20045;-46
2022/04/23 01:20:59;;;;;;;25.90;16.92;;;;;;;11.26;66.67;99537.44;5033851;28;20097;-45
2022/04/23 01:23:25;;;;;;;28.52;16.58;;;;;;;11.27;66.64;99538.28;5050119;28;20512;-46
2022/04/23 01:25:54;;;;;;;32.60;16.67;;;;;;;11.37;66.46;99542.22;5058785;28;20049;-45
2022/04/23 01:28:24;;;;;;;29.20;16.35;;;;;;;11.22;66.44;99520.25;5057528;28;20090;-44
2022/04/23 01:30:54;;;;;;;30.55;17.25;;;;;;;11.43;66.49;99548.03;5047112;28;20137;-44
2022/04/23 01:33:20;;;;;;;29.42;17.92;;;;;;;11.43;66.42;99547.19;5048866;28;20051;-48
2022/04/23 01:35:46;;;;;;;27.35;16.95;;;;;;;11.44;66.67;99541.94;5063707;28;20037;-48
2022/04/23 01:38:14;;;;;;;32.08;16.05;;;;;;;11.30;66.67;99515.59;5058176;28;20599;-48
2022/04/23 01:40:40;;;;;;;28.17;16.42;;;;;;;11.47;66.63;99541.78;5063267;28;20049;-46
2022/04/23 01:43:09;;;;;;;29.55;16.77;;;;;;;11.48;66.79;99542.63;5047223;28;20037;-43
2022/04/23 01:45:36;;;;;;;25.85;16.42;;;;;;;11.49;66.77;99536.53;5048576;28;20623;-47
2022/04/23 01:48:02;;;;;;;30.55;17.30;;;;;;;11.52;67.19;99546.81;5048512;28;20097;-45
2022/04/23 01:50:28;;;;;;;27.33;16.27;;;;;;;11.53;66.62;99540.69;5046603;28;20068;-47
2022/04/23 01:52:54;;;;;;;26.83;16.40;;;;;;;11.54;66.73;99542.41;5051661;28;20070;-46
2022/04/23 01:55:20;;;;;;;31.30;17.50;;;;;;;11.56;67.18;99550.16;5066767;28;20048;-46
2022/04/23 01:57:46;;;;;;;27.67;16.48;;;;;;;11.43;66.75;99529.81;5066891;28;20451;-46
2022/04/23 02:00:14;;;;;;;32.38;17.60;;;;;;;11.50;67.33;99547.78;5065373;28;20125;-47
2022/04/23 02:02:43;;;;;;;32.22;17.45;;;;;;;11.48;67.15;99540.88;5063825;28;20047;-45
2022/04/23 02:05:09;;;;;;;25.98;16.10;;;;;;;11.40;67.15;99531.69;5017670;28;20064;-49
2022/04/23 02:07:39;;;;;;;23.95;15.23;;;;;;;11.50;66.73;99539.97;5029403;28;20045;-44
2022/04/23 02:10:05;;;;;;;27.00;17.15;;;;;;;11.52;66.81;99538.16;5028571;28;20037;-44
2022/04/23 02:12:31;;;;;;;28.95;16.77;;;;;;;11.52;67.26;99541.59;5050989;28;20051;-44
2022/04/23 02:14:57;;;;;;;30.20;16.38;;;;;;;11.55;67.06;99549.31;5049503;28;20416;-46
2022/04/23 02:17:32;;;;;;;30.80;16.70;;;;;;;11.52;67.10;99552.00;5047804;28;20477;-44
2022/04/23 02:20:03;;;;;;;28.98;16.80;;;;;;;11.41;67.66;99546.38;5058955;28;20523;-45
2022/04/23 02:22:29;;;;;;;30.80;17.70;;;;;;;11.17;69.47;99548.22;5051297;28;20143;-45
2022/04/23 02:24:56;;;;;;;32.53;19.20;;;;;;;10.94;71.27;99549.09;5051918;28;20465;-46
2022/04/23 02:27:23;;;;;;;29.17;18.65;;;;;;;10.80;72.95;99527.97;5095664;28;20043;-45
2022/04/23 02:29:51;;;;;;;32.65;18.90;;;;;;;10.66;75.38;99545.84;5053265;28;20036;-45
2022/04/23 02:32:16;;;;;;;35.03;19.20;;;;;;;10.64;77.21;99558.03;5061814;28;20509;-44
2022/04/23 02:34:42;;;;;;;33.85;18.75;;;;;;;10.53;78.57;99558.41;5067839;28;20041;-45
2022/04/23 02:37:08;;;;;;;32.88;20.00;;;;;;;10.43;81.37;99561.41;5058229;28;20078;-44
2022/04/23 02:39:35;;;;;;;44.30;21.40;;;;;;;10.32;83.17;99558.34;5061948;28;20076;-48
2022/04/23 02:42:02;;;;;;;34.08;19.00;;;;;;;10.25;84.54;99552.53;5049809;28;20878;-44
2022/04/23 02:44:29;;;;;;;40.55;21.38;;;;;;;10.23;86.14;99559.50;5040493;28;20160;-44
2022/04/23 02:46:55;;;;;;;37.35;20.65;;;;;;;10.17;87.08;99542.38;5047650;28;20032;-46
2022/04/23 02:49:21;;;;;;;36.33;20.35;;;;;;;10.27;87.43;99552.44;5029808;28;20045;-42
2022/04/23 02:51:48;;;;;;;38.05;21.92;;;;;;;10.29;87.50;99558.47;5046392;28;20041;-45
2022/04/23 02:54:13;;;;;;;35.85;20.52;;;;;;;10.32;88.03;99555.72;5046766;28;20049;-46
2022/04/23 02:56:39;;;;;;;36.78;20.70;;;;;;;10.23;88.43;99543.94;5062855;28;20057;-45
2022/04/23 02:59:06;;;;;;;38.08;21.08;;;;;;;10.17;88.47;99533.75;5048419;28;20036;-45
2022/04/23 03:01:36;;;;;;;36.13;19.92;;;;;;;10.26;88.91;99556.81;5050690;28;20049;-48
2022/04/23 03:04:02;;;;;;;37.47;21.58;;;;;;;10.22;88.84;99549.16;5049950;28;20405;-45
2022/04/23 03:06:28;;;;;;;37.58;21.23;;;;;;;10.26;89.20;99551.59;5051172;28;20106;-46
2022/04/23 03:09:02;;;;;;;43.72;21.45;;;;;;;10.24;89.52;99545.63;5034056;28;20139;-45
2022/04/23 03:11:32;;;;;;;37.15;20.30;;;;;;;10.15;90.06;99533.75;5039207;28;20041;-44
2022/04/23 03:13:58;;;;;;;34.63;20.27;;;;;;;10.31;90.18;99548.88;5071165;28;20066;-45
2022/04/23 03:16:29;;;;;;;36.20;22.27;;;;;;;10.34;89.74;99553.94;5050500;28;20041;-46
2022/04/23 03:18:56;;;;;;;41.55;22.45;;;;;;;10.36;89.78;99542.59;5066243;28;20488;-44
2022/04/23 03:21:22;;;;;;;37.85;20.38;;;;;;;10.38;90.65;99545.97;5049483;28;20045;-46
2022/04/23 03:23:48;;;;;;;37.20;20.35;;;;;;;10.40;90.11;99544.19;5051003;28;20048;-47
2022/04/23 03:26:14;;;;;;;35.80;22.05;;;;;;;10.42;90.12;99549.31;5050013;28;20036;-45
2022/04/23 03:28:40;;;;;;;37.00;21.50;;;;;;;10.42;89.76;99555.34;5051173;28;20079;-46
2022/04/23 03:31:05;;;;;;;35.25;21.13;;;;;;;10.44;90.25;99545.75;5050998;28;20033;-43
2022/04/23 03:33:32;;;;;;;40.47;21.17;;;;;;;10.51;90.45;99546.41;5050685;28;20584;-43
2022/04/23 03:35:58;;;;;;;36.55;20.45;;;;;;;10.54;90.34;99548.88;5053642;28;20588;-45
2022/04/23 03:38:25;;;;;;;37.03;21.65;;;;;;;10.55;90.07;99547.97;5050448;28;20067;-44
2022/04/23 03:40:53;;;;;;;36.25;22.05;;;;;;;10.60;89.95;99546.06;5050720;28;20631;-49
2022/04/23 03:43:28;;;;;;;32.20;20.45;;;;;;;10.58;89.87;99537.47;5049347;28;20079;-46
2022/04/23 03:45:54;;;;;;;37.53;21.63;;;;;;;10.65;89.13;99540.69;5061538;28;20040;-47
2022/04/23 03:48:22;;;;;;;36.35;19.85;;;;;;;10.74;88.89;99555.94;5064276;28;20047;-45
2022/04/23 03:50:49;;;;;;;38.42;20.08;;;;;;;10.77;89.38;99551.50;5068571;28;20122;-45
2022/04/23 03:53:14;;;;;;;33.80;19.35;;;;;;;10.82;88.13;99548.72;5077025;28;20103;-46
2022/04/23 03:55:41;;;;;;;33.90;19.65;;;;;;;10.87;88.25;99546.78;5050552;28;20516;-44
2022/04/23 03:58:07;;;;;;;34.42;19.55;;;;;;;10.93;87.83;99549.16;5052010;28;20166;-47
2022/04/23 04:00:34;;;;;;;30.88;18.88;;;;;;;11.00;87.63;99542.81;5068476;28;20036;-45
2022/04/23 04:03:00;;;;;;;33.33;21.13;;;;;;;10.97;86.80;99543.78;5051464;28;20040;-49
2022/04/23 04:05:26;;;;;;;33.45;19.23;;;;;;;11.00;85.92;99535.00;5048762;28;20497;-47
2022/04/23 04:07:52;;;;;;;32.88;20.10;;;;;;;11.02;85.78;99531.44;5054849;28;20052;-44
2022/04/23 04:10:21;;;;;;;36.83;20.83;;;;;;;11.17;85.17;99543.00;5082391;28;20037;-46
2022/04/23 04:12:47;;;;;;;31.58;19.60;;;;;;;11.23;85.09;99549.72;5067085;28;20491;-44
2022/04/23 04:15:16;;;;;;;32.35;19.70;;;;;;;11.26;85.23;99545.25;5091080;28;20037;-44
2022/04/23 04:17:43;;;;;;;33.55;20.38;;;;;;;11.30;85.11;99540.78;5048985;28;20041;-45
2022/04/23 04:20:11;;;;;;;31.73;18.48;;;;;;;11.32;84.72;99536.34;5082502;28;20044;-45
2022/04/23 04:22:38;;;;;;;30.50;18.73;;;;;;;11.41;84.21;99543.78;5066441;28;20044;-46
2022/04/23 04:25:04;;;;;;;36.15;20.40;;;;;;;11.42;83.92;99546.34;5068753;28;20044;-45
2022/04/23 04:27:30;;;;;;;30.80;18.67;;;;;;;11.37;83.71;99530.06;5026720;28;20051;-47
2022/04/23 04:29:55;;;;;;;32.53;18.58;;;;;;;11.49;83.29;99546.94;5061240;28;20041;-44
2022/04/23 04:32:22;;;;;;;32.95;20.38;;;;;;;11.54;83.18;99545.00;5063798;28;20056;-49
2022/04/23 04:34:47;;;;;;;34.20;20.33;;;;;;;11.56;82.61;99548.41;5049743;28;20045;-45
2022/04/23 04:37:14;;;;;;;31.08;19.80;;;;;;;11.59;82.35;99553.47;5053224;28;20091;-47
2022/04/23 04:39:42;;;;;;;37.95;20.77;;;;;;;11.53;82.47;99540.69;5048914;28;20086;-45
2022/04/23 04:42:10;;;;;;;42.42;21.00;;;;;;;11.51;82.39;99537.31;5050209;28;20041;-44
2022/04/23 04:44:37;;;;;;;33.08;19.98;;;;;;;11.62;82.42;99552.53;5057448;28;20045;-47
2022/04/23 04:47:09;;;;;;;34.67;19.42;;;;;;;11.64;81.86;99551.53;5049698;28;20036;-46
2022/04/23 04:49:40;;;;;;;34.30;20.65;;;;;;;11.68;80.90;99544.44;5046666;28;20120;-46
2022/04/23 04:52:06;;;;;;;35.28;21.00;;;;;;;11.69;81.01;99549.59;5049059;28;20048;-45
2022/04/23 04:54:32;;;;;;;36.97;20.05;;;;;;;11.64;80.12;99530.69;5061117;28;20042;-47
2022/04/23 04:56:58;;;;;;;31.35;20.30;;;;;;;11.71;79.69;99539.97;5064761;28;20044;-46
2022/04/23 04:59:24;;;;;;;36.90;19.85;;;;;;;11.77;79.89;99547.56;5062409;28;20044;-46
2022/04/23 05:01:51;;;;;;;30.50;19.75;;;;;;;11.78;79.52;99544.03;5068999;28;20059;-44
2022/04/23 05:04:17;;;;;;;30.00;20.20;;;;;;;11.79;79.58;99542.25;5036374;28;20065;-45
2022/04/23 05:06:43;;;;;;;36.30;19.20;;;;;;;11.80;79.42;99550.03;5048927;28;20171;-45
2022/04/23 05:09:09;;;;;;;30.92;19.17;;;;;;;11.81;79.50;99545.66;5048979;28;20127;-46
2022/04/23 05:11:35;;;;;;;31.63;20.25;;;;;;;11.70;79.32;99532.19;5048967;28;20504;-44
2022/04/23 05:14:00;;;;;;;30.70;18.95;;;;;;;11.72;78.87;99527.78;5047404;28;20040;-45
2022/04/23 05:16:26;;;;;;;36.83;19.45;;;;;;;11.76;78.68;99531.97;5055951;28;20045;-45
2022/04/23 05:18:52;;;;;;;35.40;20.55;;;;;;;11.87;78.59;99545.41;5069986;28;20138;-47
2022/04/23 05:21:18;;;;;;;34.08;19.35;;;;;;;11.85;78.39;99539.41;5048960;28;20045;-46
2022/04/23 05:23:43;;;;;;;36.97;20.80;;;;;;;11.91;77.93;99546.13;5060454;28;20117;-48
2022/04/23 05:26:09;;;;;;;37.22;21.00;;;;;;;12.06;78.06;99548.06;5046613;28;20041;-45
2022/04/23 05:28:39;;;;;;;33.22;20.40;;;;;;;12.12;77.67;99545.22;5048638;28;20040;-46
2022/04/23 05:31:05;;;;;;;38.38;20.80;;;;;;;12.20;77.43;99548.31;5048904;28;20477;-47
2022/04/23 05:33:31;;;;;;;34.05;20.05;;;;;;;12.24;77.27;99547.31;5048342;28;20068;-47
2022/04/23 05:35:56;;;;;;;33.25;21.10;;;;;;;12.29;76.96;99550.56;5063090;28;20627;-45
2022/04/23 05:38:22;;;;;;;36.03;20.42;;;;;;;12.33;76.73;99546.91;5057111;28;20393;-47
2022/04/23 05:40:49;;;;;;;34.53;20.25;;;;;;;12.36;76.28;99544.16;5077659;28;20037;-46
2022/04/23 05:43:16;;;;;;;31.65;18.88;;;;;;;12.43;75.42;99550.78;5048002;28;20634;-47
2022/04/23 05:45:43;;;;;;;38.13;19.25;;;;;;;12.51;74.62;99555.69;5030237;28;20037;-46
2022/04/23 05:48:10;;;;;;;28.13;18.00;;;;;;;12.60;73.90;99550.06;5052261;28;20492;-45
2022/04/23 05:50:36;;;;;;;33.97;19.20;;;;;;;12.62;72.87;99546.44;5068538;28;20041;-45
2022/04/23 05:53:02;;;;;;;30.30;19.23;;;;;;;12.74;72.93;99547.66;5050720;28;20049;-48
2022/04/23 05:55:28;;;;;;;29.92;17.05;;;;;;;12.78;72.19;99540.53;5046302;28;20425;-47
2022/04/23 05:57:54;;;;;;;29.52;18.48;;;;;;;12.63;71.27;99524.66;5048456;28;20052;-46
2022/04/23 06:00:20;;;;;;;32.25;17.65;;;;;;;12.67;71.06;99527.97;5065562;28;20085;-45
2022/04/23 06:02:45;;;;;;;28.60;17.63;;;;;;;12.82;70.91;99531.69;5050262;28;20048;-47
2022/04/23 06:05:11;;;;;;;30.70;19.25;;;;;;;12.95;70.08;99532.78;5047554;28;20064;-50
2022/04/23 06:07:37;;;;;;;35.78;20.40;;;;;;;13.11;70.51;99525.94;5055067;28;20051;-47
2022/04/23 06:10:04;;;;;;;34.75;20.50;;;;;;;13.27;70.90;99524.31;5048032;28;20040;-47
2022/04/23 06:12:31;;;;;;;36.75;20.83;;;;;;;13.36;70.72;99523.88;5046831;28;20098;-48
2022/04/23 06:14:57;;;;;;;31.95;19.77;;;;;;;13.40;70.61;99519.34;5047956;28;20186;-46
2022/04/23 06:17:28;;;;;;;32.92;19.50;;;;;;;13.53;69.90;99516.06;5046284;28;20811;-44
2022/04/23 06:19:55;;;;;;;32.13;19.08;;;;;;;13.73;69.32;99516.84;5046769;28;20040;-46
2022/04/23 06:22:25;;;;;;;31.15;18.95;;;;;;;13.98;68.63;99523.38;5031478;28;20072;-44
2022/04/23 06:24:51;;;;;;;33.83;19.85;;;;;;;14.13;67.86;99511.28;5049564;28;20036;-45
2022/04/23 06:27:17;;;;;;;30.15;19.45;;;;;;;14.28;67.08;99520.13;5062388;28;20041;-45
2022/04/23 06:29:43;;;;;;;32.63;18.20;;;;;;;15.16;63.41;99524.06;5048600;28;20063;-46
2022/04/23 06:32:09;;;;;;;26.83;17.75;;;;;;;15.70;61.17;99528.94;5051647;28;20076;-45
2022/04/23 06:34:37;;;;;;;31.88;18.88;;;;;;;15.71;60.40;99523.59;5051716;28;20045;-44
2022/04/23 06:37:06;;;;;;;26.55;17.83;;;;;;;16.77;57.66;99530.31;5041427;28;20051;-47
2022/04/23 06:39:32;;;;;;;;;;;;;;;18.05;54.96;99536.00;5060427;28;20473;-47
2022/04/23 06:41:58;;;;;;;29.08;18.35;;;;;;;19.22;51.26;99534.84;5052580;28;19923;-46
2022/04/23 06:44:24;;;;;;;26.60;17.65;;;;;;;20.25;48.26;99532.44;5052631;28;20582;-46
2022/04/23 06:46:49;;;;;;;25.38;17.65;;;;;;;21.13;45.95;99536.91;5067263;28;20604;-46
2022/04/23 06:49:15;;;;;;;29.83;18.52;;;;;;;22.08;43.75;99545.06;5044101;28;20060;-49
2022/04/23 06:51:41;;;;;;;24.15;16.88;;;;;;;22.73;41.84;99531.50;5051891;28;20416;-46
2022/04/23 06:54:07;;;;;;;25.25;18.02;;;;;;;23.07;39.87;99522.28;5050066;28;20520;-46
2022/04/23 06:56:33;;;;;;;30.60;18.45;;;;;;;23.81;38.21;99527.97;5049714;28;20577;-47
2022/04/23 06:58:59;;;;;;;22.17;16.80;;;;;;;24.35;36.85;99516.72;5047189;28;20512;-46
2022/04/23 07:01:26;;;;;;;26.48;17.92;;;;;;;25.09;34.97;99535.34;5052962;28;20086;-45
2022/04/23 07:03:52;;;;;;;26.33;16.23;;;;;;;25.88;33.03;99530.19;5053674;28;20064;-46
2022/04/23 07:06:18;;;;;;;22.00;15.18;;;;;;;26.86;32.01;99526.34;5058788;28;20420;-46
2022/04/23 07:08:44;;;;;;;20.52;17.25;;;;;;;27.64;30.68;99522.44;5063535;28;20051;-47
2022/04/23 07:11:11;;;;;;;23.00;17.10;;;;;;;27.32;30.83;99525.06;5079757;28;20043;-48
2022/04/23 07:13:38;;;;;;;22.85;17.55;;;;;;;27.69;29.76;99527.28;5046576;28;20055;-48
2022/04/23 07:16:05;;;;;;;24.25;17.85;;;;;;;28.02;29.41;99509.44;5062364;28;20132;-46
2022/04/23 07:18:32;;;;;;;21.27;17.30;;;;;;;28.36;28.30;99517.28;5030116;28;20045;-45
2022/04/23 07:20:57;;;;;;;23.38;16.83;;;;;;;28.64;27.64;99522.03;5045979;28;20036;-49
2022/04/23 07:26:11;;;;;;;22.75;17.83;;;;;;;26.80;29.90;99505.63;5070509;28;20475;-46
2022/04/23 07:28:39;;;;;;;28.08;18.35;;;;;;;27.27;29.21;99506.81;5048458;28;20049;-46
2022/04/23 07:31:05;;;;;;;25.58;17.83;;;;;;;27.95;28.74;99514.59;5049161;28;20516;-46
2022/04/23 07:38:59;;;;;;;23.70;17.17;;;;;;;28.90;26.66;99508.44;5047855;28;20049;-44
2022/04/23 07:41:27;;;;;;;24.70;17.65;;;;;;;28.92;26.33;99503.75;5080999;28;20052;-45
2022/04/23 07:43:53;;;;;;;23.80;17.95;;;;;;;28.40;27.41;99498.03;5050379;28;20094;-48
2022/04/23 07:46:19;;;;;;;22.10;17.33;;;;;;;28.03;27.64;99503.09;5048392;28;20056;-46
2022/04/23 07:48:45;;;;;;;25.60;19.30;;;;;;;26.72;28.94;99500.28;5050530;28;20045;-50
2022/04/23 07:51:10;;;;;;;22.50;18.38;;;;;;;25.33;30.87;99503.66;5048796;28;20098;-47
2022/04/23 07:53:36;;;;;;;22.45;17.98;;;;;;;24.33;32.95;99500.09;5049476;28;20505;-49
2022/04/23 07:56:05;;;;;;;24.23;19.15;;;;;;;23.53;33.64;99491.63;5048253;28;20049;-47
2022/04/23 07:58:31;;;;;;;25.75;17.75;;;;;;;22.54;34.50;99481.88;5047555;28;20045;-49
2022/04/23 08:00:56;;;;;;;23.33;18.20;;;;;;;22.84;34.43;99491.63;5048857;28;20118;-46
2022/04/23 08:03:22;;;;;;;21.27;17.67;;;;;;;23.63;33.14;99493.31;5044766;28;20161;-45
2022/04/23 08:05:48;;;;;;;21.23;17.88;;;;;;;24.36;32.48;99498.97;5049821;28;20044;-46
2022/04/23 08:08:15;;;;;;;27.92;18.65;;;;;;;25.03;31.33;99493.38;5049305;28;20090;-45
2022/04/23 08:10:41;;;;;;;22.40;17.65;;;;;;;24.63;31.31;99487.53;5048296;28;20040;-47
2022/04/23 08:13:10;;;;;;;;;;;;;;;25.30;30.21;99495.16;5056461;28;20048;-45
2022/04/23 08:15:35;;;;;;;21.73;17.73;;;;;;;26.34;29.01;99489.06;5048310;28;19989;-47
2022/04/23 08:18:01;;;;;;;26.15;18.30;;;;;;;25.89;29.84;99486.59;5060697;28;20045;-47
2022/04/23 08:20:30;;;;;;;27.30;19.13;;;;;;;24.97;31.35;99470.03;5047435;28;20041;-47
2022/04/23 08:22:56;;;;;;;26.77;20.27;;;;;;;25.46;30.94;99475.84;5048251;28;20040;-47
2022/04/23 08:25:22;;;;;;;27.63;19.95;;;;;;;26.08;29.96;99470.38;5046511;28;20037;-45
2022/04/23 08:27:50;;;;;;;26.98;19.10;;;;;;;26.32;30.07;99469.75;5047613;28;20040;-46
2022/04/23 08:30:35;;;;;;;27.58;20.20;;;;;;;26.76;28.75;99477.59;5049955;28;20044;-48
2022/04/23 08:33:05;;;;;;;25.67;18.40;;;;;;;26.89;28.55;99476.22;5060129;28;20052;-46
2022/04/23 08:35:32;;;;;;;22.92;17.55;;;;;;;27.29;28.16;99478.13;5040595;28;20041;-45
2022/04/23 08:37:59;;;;;;;25.10;16.70;;;;;;;27.88;26.80;99480.72;5072251;28;20041;-47
2022/04/23 08:40:25;;;;;;;26.10;18.25;;;;;;;27.01;28.08;99476.72;5041685;28;20068;-48
2022/04/23 08:42:51;;;;;;;24.15;17.98;;;;;;;26.49;28.32;99473.31;5045479;28;20057;-47
2022/04/23 08:45:19;;;;;;;23.10;18.20;;;;;;;25.81;29.00;99475.84;5049317;28;20072;-50
2022/04/23 08:47:45;;;;;;;31.38;18.73;;;;;;;25.33;29.85;99468.25;5047669;28;20044;-44
2022/04/23 08:50:11;;;;;;;31.23;19.23;;;;;;;26.29;28.34;99471.88;5047127;28;20412;-45
2022/04/23 08:52:41;;;;;;;26.02;17.90;;;;;;;27.40;26.96;99469.81;5048763;28;20829;-44
2022/04/23 08:55:07;;;;;;;23.05;18.80;;;;;;;27.56;26.75;99469.03;5046454;28;20037;-44
2022/04/23 08:57:33;;;;;;;24.83;19.95;;;;;;;26.55;28.34;99462.03;5063120;28;20037;-46
2022/04/23 09:00:00;;;;;;;24.55;17.40;;;;;;;25.35;29.33;99455.63;5062195;28;20055;-44
2022/04/23 09:02:26;;;;;;;22.23;17.90;;;;;;;24.32;30.05;99437.31;5064151;28;20083;-47
2022/04/23 09:04:56;;;;;;;23.88;17.08;;;;;;;23.88;31.31;99460.03;5030245;28;20531;-47
2022/04/23 09:07:26;;;;;;;20.83;15.80;;;;;;;23.09;31.38;99461.13;5061538;28;20028;-44
2022/04/23 09:09:53;;;;;;;19.92;13.90;;;;;;;22.12;31.88;99457.28;5048456;28;20043;-46
2022/04/23 09:12:22;;;;;;;20.77;14.38;;;;;;;21.55;32.59;99455.91;5046611;28;20505;-48
2022/04/23 09:14:48;;;;;;;;;;;;;;;21.19;33.71;99466.03;5056655;28;20075;-47
2022/04/23 09:25:41;;;;;;;26.58;18.52;;;;;;;20.59;36.77;99462.00;5045188;28;20514;-46
2022/04/23 09:28:19;;;;;;;28.25;17.85;;;;;;;20.27;36.58;99460.06;5049769;28;20041;-45
2022/04/23 09:30:47;;;;;;;23.90;16.70;;;;;;;20.12;37.02;99461.25;5047280;28;20040;-50
2022/04/23 09:33:13;;;;;;;33.40;18.98;;;;;;;19.99;37.34;99444.69;5047788;28;20087;-52
2022/04/23 09:36:08;;;;;;;30.85;18.40;;;;;;;20.03;37.58;99458.47;5052139;28;20059;-49
2022/04/23 09:38:34;;;;;;;29.75;17.20;;;;;;;20.26;37.19;99453.09;5085344;28;20948;-48
2022/04/23 09:41:19;;;;;;;27.23;18.02;;;;;;;21.69;35.70;99438.84;5048051;28;20132;-50
2022/04/23 09:44:04;;;;;;;24.10;18.38;;;;;;;23.33;33.26;99453.63;5045170;28;20088;-45
2022/04/23 09:46:44;;;;;;;30.48;18.77;;;;;;;23.49;33.21;99443.31;5041994;28;20051;-48
2022/04/23 09:49:11;;;;;;;30.08;19.38;;;;;;;23.50;33.07;99455.59;5054596;28;20048;-53
2022/04/23 09:51:37;;;;;;;30.83;19.50;;;;;;;22.79;34.10;99448.78;5071455;28;20103;-48
2022/04/23 09:54:04;;;;;;;27.65;18.92;;;;;;;22.19;34.80;99449.66;5035159;28;20437;-45
2022/04/23 09:56:30;;;;;;;29.45;19.17;;;;;;;21.69;35.28;99443.31;5045640;28;20101;-44
2022/04/23 09:58:56;;;;;;;29.50;20.33;;;;;;;21.27;35.78;99443.25;5068847;28;20509;-45
2022/04/23 10:01:23;;;;;;;28.35;19.48;;;;;;;21.08;36.01;99448.34;5046537;28;20040;-51
2022/04/23 10:03:55;;;;;;;32.30;18.88;;;;;;;20.89;36.39;99442.84;5063526;28;20424;-49
2022/04/23 10:06:22;;;;;;;26.92;18.13;;;;;;;20.91;36.29;99439.13;5043515;28;20041;-47
2022/04/23 10:08:49;;;;;;;24.98;16.50;;;;;;;20.78;35.85;99441.06;5034148;28;20464;-51
2022/04/23 10:11:21;;;;;;;23.50;16.40;;;;;;;20.69;35.67;99436.53;5048757;28;20037;-47
2022/04/23 10:13:51;;;;;;;25.38;15.50;;;;;;;20.59;35.64;99439.06;5047008;28;20044;-42
2022/04/23 10:16:20;;;;;;;28.55;17.08;;;;;;;20.36;35.65;99413.63;5050786;28;20059;-44
2022/04/23 10:18:46;;;;;;;22.70;15.98;;;;;;;20.29;36.48;99430.91;5064414;28;20235;-47
2022/04/23 10:21:21;;;;;;;22.92;16.50;;;;;;;20.30;36.59;99438.72;5048762;28;20606;-50
2022/04/23 10:23:59;;;;;;;24.08;16.17;;;;;;;20.39;36.27;99434.53;5046710;28;20032;-49
2022/04/23 10:26:43;;;;;;;22.70;14.95;;;;;;;21.23;34.83;99433.91;5055781;28;20131;-53
2022/04/23 10:29:16;;;;;;;25.40;16.05;;;;;;;22.87;32.18;99434.88;5027792;28;20067;-47
2022/04/23 10:31:42;;;;;;;24.95;15.55;;;;;;;24.17;30.41;99437.88;5053907;28;20068;-50
2022/04/23 10:34:31;;;;;;;22.33;14.50;;;;;;;25.11;28.42;99429.63;5064436;28;20040;-52
2022/04/23 10:37:25;;;;;;;24.65;13.50;;;;;;;25.43;27.13;99441.56;5067196;28;20044;-52
2022/04/23 10:39:51;;;;;;;21.50;13.75;;;;;;;24.60;28.65;99434.66;5036029;28;20069;-47
2022/04/23 10:42:21;;;;;;;20.63;13.85;;;;;;;24.73;28.45;99428.00;5063096;28;20075;-46
2022/04/23 10:44:48;;;;;;;18.25;12.77;;;;;;;25.33;27.56;99421.16;5060067;28;20051;-48
2022/04/23 10:47:30;;;;;;;18.25;14.25;;;;;;;24.65;27.98;99422.56;5082775;28;20094;-49
2022/04/23 10:52:43;;;;;;;25.92;13.88;;;;;;;25.60;27.34;99422.06;5027897;28;20139;-49
2022/04/23 10:55:10;;;;;;;20.48;12.80;;;;;;;26.68;25.61;99413.56;5036238;28;20516;-48
2022/04/23 10:57:40;;;;;;;18.42;11.93;;;;;;;27.07;25.33;99412.03;5047537;28;20068;-49
2022/04/23 11:00:11;;;;;;;19.20;12.38;;;;;;;27.69;24.35;99401.72;5059092;28;20090;-49
2022/04/23 11:02:39;;;;;;;15.52;11.00;;;;;;;27.71;23.65;99408.59;5044586;28;20094;-50
2022/04/23 11:14:44;;;;;;;16.52;12.48;;;;;;;29.20;22.11;99406.88;5024977;28;20188;-47
2022/04/23 11:17:17;;;;;;;18.23;12.63;;;;;;;29.34;22.28;99387.38;5018479;28;20099;-48
2022/04/23 11:19:45;;;;;;;19.33;13.48;;;;;;;29.32;21.95;99408.97;5026156;28;20044;-49
2022/04/23 11:22:11;;;;;;;17.75;12.75;;;;;;;28.87;22.29;99400.88;5022162;28;20045;-45
2022/04/23 11:24:37;;;;;;;18.90;12.75;;;;;;;29.26;22.01;99390.06;5011296;28;20060;-47
2022/04/23 11:27:03;;;;;;;18.10;12.70;;;;;;;29.22;21.85;99378.88;4994379;28;20029;-49
2022/04/23 11:29:28;;;;;;;15.60;12.32;;;;;;;29.21;21.90;99393.28;5025491;28;20045;-48
2022/04/23 11:31:58;;;;;;;19.80;13.30;;;;;;;27.63;23.48;99387.22;5012406;28;20044;-47
2022/04/23 11:34:24;;;;;;;17.90;12.00;;;;;;;26.54;24.57;99383.84;5047721;28;20790;-49
2022/04/23 11:36:51;;;;;;;16.20;12.57;;;;;;;25.00;25.77;99387.28;5026466;28;20079;-46
2022/04/23 11:39:17;;;;;;;23.25;12.68;;;;;;;24.39;26.68;99385.22;5025329;28;20041;-49
2022/04/23 11:41:48;;;;;;;18.90;12.50;;;;;;;25.08;26.22;99381.19;5045031;28;20037;-52
2022/04/23 11:44:17;;;;;;;19.50;12.50;;;;;;;25.78;25.28;99387.44;5023507;28;20054;-46
2022/04/23 11:46:51;;;;;;;16.80;12.20;;;;;;;26.30;25.01;99374.94;5041271;28;20517;-50
2022/04/23 11:49:25;;;;;;;15.25;11.43;;;;;;;26.95;24.12;99378.66;5042865;28;20049;-47
2022/04/23 11:51:51;;;;;;;19.60;11.48;;;;;;;26.73;24.31;99372.09;5045577;28;20045;-49